La Palma > ESTACION METEOROLÓGICA Puerto Naos

DATOS ACTUALES Online

Ultima actulizacion 0 minutos

22.2 ºC

Temperatura

92

Humedad (%)

1014.5

Presión (mb)

9.9

Precipitación (mm)

4.8 W

Viento (Km/h)

DATOS DIARIOS

Temperatura últimas 24 horas (ºC)

Humedad últimas 24 horas (%)

Presión atmosférica últimas 24 horas (mb)

Precipitaciones últimas 23 horas (mm)

Viento últimas 24 horas (Km/h)

Hora Temperatura (°C) ºC Precipitación (mm) mm Presión (mb) mb Humedad (%) % Viento (Km/h) km/h
24 - 23:00 24.1 0 1017 79 0 N
25 - 00:00 23.9 0 1018 76 6.4 NE
25 - 01:00 24.5 0 1017 79 1.6 ENE
25 - 02:00 24.1 0 1017 80 3.2 E
25 - 03:00 24 0 1017 79 0 N
25 - 04:00 24 0 1016 79 6.4 NE
25 - 05:00 23.9 0 1016 77 0 N
25 - 06:00 23.9 0 1016 77 0 N
25 - 07:00 23.8 0 1016 78 3.2 ENE
25 - 08:00 24 0 1016 79 0 N
25 - 09:00 24.4 0 1017 79 9.7 W
25 - 10:00 24.3 0 1018 80 1.6 WSW
25 - 11:00 23.9 0 1018 78 0 N
25 - 12:00 23.7 0 1018 80 4.8 SSE
25 - 13:00 21.6 3.3 1018 84 0 N
25 - 14:00 20.9 5.6 1017 88 1.6 SE
25 - 15:00 21.3 8.1 1016 89 3.2 SE
25 - 16:00 21.6 8.4 1015 90 4.8 SW
25 - 17:00 21.4 8.6 1015 91 1.6 SSE
25 - 18:00 21.5 8.9 1015 91 4.8 SE
25 - 19:00 21.5 9.7 1015 91 0 N
25 - 20:00 21.7 9.9 1014 91 0 N
25 - 21:00 21.9 9.9 1015 91 0 N
25 - 22:00 22 9.9 1015 92 0 N
25 - 23:00 22.2 9.9 1015 92 4.8 W
Apalmet utiliza cookies propias y de terceros para mejorar la usabilidad y la experiencia web. Política de cookies.